Terminal Aerodrome Forecast
Issued by NWS

Home | Current Version | Previous Version | Text Only | Print | Product List | Glossary On
Versions: 1 2 3 4 5 6 7 8 9 10 11 12 13 14 15 16 17 18 19 20 21 22 23 24
968
FTUS46 KMFR 211730
TAFOTH
TAF
KOTH 211730Z 2118/2218 VRB03KT P6SM FEW010
     FM211900 32010KT P6SM SKC
     FM220800 36003KT P6SM BKN005
     FM221200 02003KT 2SM BR OVC002
     FM221600 35008KT P6SM FEW005=

USA.gov is the U.S. government's official web portal to all federal, state and local government web resources and services.